sensor_id;sensor_type;location;lat;lon;timestamp;P1;durP1;ratioP1;P2;durP2;ratioP2
3249;SDS011;1637;42.020;23.992;2022-10-17T00:00:45;32.10;;;14.87;;
3249;SDS011;1637;42.020;23.992;2022-10-17T00:03:12;40.90;;;19.20;;
3249;SDS011;1637;42.020;23.992;2022-10-17T00:05:40;34.43;;;17.93;;
3249;SDS011;1637;42.020;23.992;2022-10-17T00:08:07;35.33;;;17.33;;
3249;SDS011;1637;42.020;23.992;2022-10-17T00:10:34;26.47;;;13.67;;
3249;SDS011;1637;42.020;23.992;2022-10-17T00:13:03;30.93;;;11.43;;
3249;SDS011;1637;42.020;23.992;2022-10-17T00:15:31;20.80;;;11.03;;
3249;SDS011;1637;42.020;23.992;2022-10-17T00:17:58;22.10;;;12.47;;
3249;SDS011;1637;42.020;23.992;2022-10-17T00:20:26;25.60;;;12.90;;
3249;SDS011;1637;42.020;23.992;2022-10-17T00:22:54;27.87;;;13.83;;
3249;SDS011;1637;42.020;23.992;2022-10-17T00:25:21;33.77;;;12.07;;
3249;SDS011;1637;42.020;23.992;2022-10-17T00:27:48;23.53;;;10.80;;
3249;SDS011;1637;42.020;23.992;2022-10-17T00:30:16;22.17;;;9.80;;
3249;SDS011;1637;42.020;23.992;2022-10-17T00:32:43;22.40;;;8.87;;
3249;SDS011;1637;42.020;23.992;2022-10-17T00:35:10;30.00;;;11.67;;
3249;SDS011;1637;42.020;23.992;2022-10-17T00:37:37;20.97;;;9.90;;
3249;SDS011;1637;42.020;23.992;2022-10-17T00:40:04;21.47;;;10.70;;
3249;SDS011;1637;42.020;23.992;2022-10-17T00:42:32;17.43;;;9.07;;
3249;SDS011;1637;42.020;23.992;2022-10-17T00:45:00;26.77;;;10.40;;
3249;SDS011;1637;42.020;23.992;2022-10-17T00:47:35;20.87;;;9.90;;
3249;SDS011;1637;42.020;23.992;2022-10-17T00:50:02;19.70;;;8.83;;
3249;SDS011;1637;42.020;23.992;2022-10-17T00:52:32;32.23;;;12.53;;
3249;SDS011;1637;42.020;23.992;2022-10-17T00:55:00;128.77;;;37.67;;
3249;SDS011;1637;42.020;23.992;2022-10-17T00:57:31;85.40;;;27.67;;
3249;SDS011;1637;42.020;23.992;2022-10-17T00:59:59;114.73;;;36.57;;
3249;SDS011;1637;42.020;23.992;2022-10-17T01:02:29;216.53;;;66.33;;
3249;SDS011;1637;42.020;23.992;2022-10-17T01:04:57;163.97;;;48.40;;
3249;SDS011;1637;42.020;23.992;2022-10-17T01:07:24;36.57;;;13.37;;
3249;SDS011;1637;42.020;23.992;2022-10-17T01:09:53;316.40;;;93.23;;
3249;SDS011;1637;42.020;23.992;2022-10-17T01:12:21;105.43;;;34.60;;
3249;SDS011;1637;42.020;23.992;2022-10-17T01:14:56;70.80;;;27.47;;
3249;SDS011;1637;42.020;23.992;2022-10-17T01:17:30;51.97;;;19.17;;
3249;SDS011;1637;42.020;23.992;2022-10-17T01:20:14;66.53;;;23.57;;
3249;SDS011;1637;42.020;23.992;2022-10-17T01:23:08;34.27;;;13.60;;
3249;SDS011;1637;42.020;23.992;2022-10-17T01:25:51;15.87;;;9.57;;
3249;SDS011;1637;42.020;23.992;2022-10-17T01:28:28;16.70;;;8.93;;
3249;SDS011;1637;42.020;23.992;2022-10-17T01:31:09;13.97;;;8.37;;
3249;SDS011;1637;42.020;23.992;2022-10-17T01:33:52;20.90;;;8.00;;
3249;SDS011;1637;42.020;23.992;2022-10-17T01:36:35;19.77;;;9.40;;
3249;SDS011;1637;42.020;23.992;2022-10-17T01:39:09;16.27;;;9.10;;
3249;SDS011;1637;42.020;23.992;2022-10-17T01:41:42;16.17;;;8.57;;
3249;SDS011;1637;42.020;23.992;2022-10-17T01:44:16;15.60;;;9.23;;
3249;SDS011;1637;42.020;23.992;2022-10-17T01:46:49;24.60;;;10.20;;
3249;SDS011;1637;42.020;23.992;2022-10-17T01:49:19;25.63;;;10.10;;
3249;SDS011;1637;42.020;23.992;2022-10-17T01:51:51;24.13;;;9.00;;
3249;SDS011;1637;42.020;23.992;2022-10-17T01:54:22;28.03;;;13.17;;
3249;SDS011;1637;42.020;23.992;2022-10-17T01:56:54;62.70;;;25.33;;
3249;SDS011;1637;42.020;23.992;2022-10-17T01:59:25;53.47;;;21.50;;
3249;SDS011;1637;42.020;23.992;2022-10-17T02:01:58;37.07;;;17.30;;
3249;SDS011;1637;42.020;23.992;2022-10-17T02:04:27;30.03;;;15.00;;
3249;SDS011;1637;42.020;23.992;2022-10-17T02:06:54;28.40;;;14.27;;
3249;SDS011;1637;42.020;23.992;2022-10-17T02:09:21;31.63;;;15.30;;
3249;SDS011;1637;42.020;23.992;2022-10-17T02:11:51;24.33;;;13.40;;
3249;SDS011;1637;42.020;23.992;2022-10-17T02:14:36;25.20;;;12.90;;
3249;SDS011;1637;42.020;23.992;2022-10-17T02:17:15;25.97;;;11.50;;
3249;SDS011;1637;42.020;23.992;2022-10-17T02:19:54;24.97;;;13.93;;
3249;SDS011;1637;42.020;23.992;2022-10-17T02:22:30;47.57;;;19.27;;
3249;SDS011;1637;42.020;23.992;2022-10-17T02:25:06;34.40;;;17.30;;
3249;SDS011;1637;42.020;23.992;2022-10-17T02:27:40;33.97;;;16.97;;
3249;SDS011;1637;42.020;23.992;2022-10-17T02:30:11;26.97;;;14.30;;
3249;SDS011;1637;42.020;23.992;2022-10-17T02:32:47;24.00;;;13.90;;
3249;SDS011;1637;42.020;23.992;2022-10-17T02:35:18;25.43;;;12.93;;
3249;SDS011;1637;42.020;23.992;2022-10-17T02:37:47;13.80;;;9.07;;
3249;SDS011;1637;42.020;23.992;2022-10-17T02:40:14;74.67;;;29.20;;
3249;SDS011;1637;42.020;23.992;2022-10-17T02:42:44;173.97;;;58.83;;
3249;SDS011;1637;42.020;23.992;2022-10-17T02:45:11;99.80;;;34.70;;
3249;SDS011;1637;42.020;23.992;2022-10-17T02:47:42;146.30;;;51.17;;
3249;SDS011;1637;42.020;23.992;2022-10-17T02:50:20;76.00;;;28.17;;
3249;SDS011;1637;42.020;23.992;2022-10-17T02:52:54;48.40;;;18.70;;
3249;SDS011;1637;42.020;23.992;2022-10-17T02:55:27;32.80;;;15.00;;
3249;SDS011;1637;42.020;23.992;2022-10-17T02:57:58;33.97;;;15.07;;
3249;SDS011;1637;42.020;23.992;2022-10-17T03:00:28;20.73;;;11.10;;
3249;SDS011;1637;42.020;23.992;2022-10-17T03:02:57;16.03;;;9.63;;
3249;SDS011;1637;42.020;23.992;2022-10-17T03:05:25;19.47;;;10.60;;
3249;SDS011;1637;42.020;23.992;2022-10-17T03:07:53;26.23;;;10.70;;
3249;SDS011;1637;42.020;23.992;2022-10-17T03:10:21;40.80;;;17.57;;
3249;SDS011;1637;42.020;23.992;2022-10-17T03:12:48;235.43;;;69.00;;
3249;SDS011;1637;42.020;23.992;2022-10-17T03:15:15;164.63;;;53.83;;
3249;SDS011;1637;42.020;23.992;2022-10-17T03:17:42;135.57;;;40.37;;
3249;SDS011;1637;42.020;23.992;2022-10-17T03:20:11;79.80;;;25.50;;
3249;SDS011;1637;42.020;23.992;2022-10-17T03:22:37;25.17;;;11.33;;
3249;SDS011;1637;42.020;23.992;2022-10-17T03:25:04;15.07;;;8.27;;
3249;SDS011;1637;42.020;23.992;2022-10-17T03:27:31;19.87;;;9.20;;
3249;SDS011;1637;42.020;23.992;2022-10-17T03:29:58;19.70;;;8.47;;
3249;SDS011;1637;42.020;23.992;2022-10-17T03:32:25;29.53;;;11.77;;
3249;SDS011;1637;42.020;23.992;2022-10-17T03:34:52;40.67;;;15.63;;
3249;SDS011;1637;42.020;23.992;2022-10-17T03:37:20;53.13;;;19.30;;
3249;SDS011;1637;42.020;23.992;2022-10-17T03:39:47;78.00;;;24.30;;
3249;SDS011;1637;42.020;23.992;2022-10-17T03:42:13;94.37;;;27.43;;
3249;SDS011;1637;42.020;23.992;2022-10-17T03:44:40;43.07;;;15.20;;
3249;SDS011;1637;42.020;23.992;2022-10-17T03:47:07;42.87;;;16.07;;
3249;SDS011;1637;42.020;23.992;2022-10-17T03:49:34;39.17;;;17.70;;
3249;SDS011;1637;42.020;23.992;2022-10-17T03:52:00;190.73;;;58.37;;
3249;SDS011;1637;42.020;23.992;2022-10-17T03:54:29;36.90;;;15.50;;
3249;SDS011;1637;42.020;23.992;2022-10-17T03:56:56;31.00;;;12.27;;
3249;SDS011;1637;42.020;23.992;2022-10-17T03:59:23;50.27;;;17.50;;
3249;SDS011;1637;42.020;23.992;2022-10-17T04:01:49;118.70;;;48.57;;
3249;SDS011;1637;42.020;23.992;2022-10-17T04:04:16;28.90;;;15.37;;
3249;SDS011;1637;42.020;23.992;2022-10-17T04:06:43;48.93;;;20.90;;
3249;SDS011;1637;42.020;23.992;2022-10-17T04:09:10;61.03;;;27.60;;
3249;SDS011;1637;42.020;23.992;2022-10-17T04:11:38;61.77;;;21.40;;
3249;SDS011;1637;42.020;23.992;2022-10-17T04:14:05;47.20;;;17.53;;
3249;SDS011;1637;42.020;23.992;2022-10-17T04:16:31;28.83;;;13.60;;
3249;SDS011;1637;42.020;23.992;2022-10-17T04:18:58;23.20;;;12.13;;
3249;SDS011;1637;42.020;23.992;2022-10-17T04:21:26;18.37;;;10.43;;
3249;SDS011;1637;42.020;23.992;2022-10-17T04:23:54;29.50;;;13.03;;
3249;SDS011;1637;42.020;23.992;2022-10-17T04:26:21;22.67;;;11.70;;
3249;SDS011;1637;42.020;23.992;2022-10-17T04:28:50;18.00;;;10.13;;
3249;SDS011;1637;42.020;23.992;2022-10-17T04:31:17;22.97;;;9.90;;
3249;SDS011;1637;42.020;23.992;2022-10-17T04:33:45;21.10;;;9.00;;
3249;SDS011;1637;42.020;23.992;2022-10-17T04:36:14;17.47;;;9.60;;
3249;SDS011;1637;42.020;23.992;2022-10-17T04:38:42;26.43;;;13.50;;
3249;SDS011;1637;42.020;23.992;2022-10-17T04:41:10;47.63;;;19.70;;
3249;SDS011;1637;42.020;23.992;2022-10-17T04:43:38;62.83;;;26.53;;
3249;SDS011;1637;42.020;23.992;2022-10-17T04:46:07;57.13;;;23.17;;
3249;SDS011;1637;42.020;23.992;2022-10-17T04:48:36;26.77;;;10.83;;
3249;SDS011;1637;42.020;23.992;2022-10-17T04:51:04;20.43;;;10.33;;
3249;SDS011;1637;42.020;23.992;2022-10-17T04:53:32;22.63;;;9.57;;
3249;SDS011;1637;42.020;23.992;2022-10-17T04:56:00;25.03;;;11.73;;
3249;SDS011;1637;42.020;23.992;2022-10-17T04:58:32;27.47;;;13.10;;
3249;SDS011;1637;42.020;23.992;2022-10-17T05:01:02;38.80;;;13.07;;
3249;SDS011;1637;42.020;23.992;2022-10-17T05:03:31;45.50;;;16.33;;
3249;SDS011;1637;42.020;23.992;2022-10-17T05:06:02;70.67;;;26.57;;
3249;SDS011;1637;42.020;23.992;2022-10-17T05:08:30;83.00;;;30.70;;
3249;SDS011;1637;42.020;23.992;2022-10-17T05:10:57;82.07;;;32.97;;
3249;SDS011;1637;42.020;23.992;2022-10-17T05:13:24;84.70;;;37.20;;
3249;SDS011;1637;42.020;23.992;2022-10-17T05:15:51;95.43;;;46.70;;
3249;SDS011;1637;42.020;23.992;2022-10-17T05:18:18;104.80;;;45.13;;
3249;SDS011;1637;42.020;23.992;2022-10-17T05:20:46;110.90;;;44.70;;
3249;SDS011;1637;42.020;23.992;2022-10-17T05:23:13;94.03;;;43.80;;
3249;SDS011;1637;42.020;23.992;2022-10-17T05:25:40;69.87;;;37.93;;
3249;SDS011;1637;42.020;23.992;2022-10-17T05:28:06;69.03;;;35.20;;
3249;SDS011;1637;42.020;23.992;2022-10-17T05:30:33;70.20;;;35.53;;
3249;SDS011;1637;42.020;23.992;2022-10-17T05:33:01;52.90;;;28.50;;
3249;SDS011;1637;42.020;23.992;2022-10-17T05:35:28;43.50;;;19.87;;
3249;SDS011;1637;42.020;23.992;2022-10-17T05:37:56;44.53;;;21.70;;
3249;SDS011;1637;42.020;23.992;2022-10-17T05:40:24;37.70;;;20.10;;
3249;SDS011;1637;42.020;23.992;2022-10-17T05:42:51;53.50;;;24.83;;
3249;SDS011;1637;42.020;23.992;2022-10-17T05:45:17;55.70;;;22.70;;
3249;SDS011;1637;42.020;23.992;2022-10-17T05:47:44;59.43;;;27.77;;
3249;SDS011;1637;42.020;23.992;2022-10-17T05:50:11;44.73;;;25.90;;
3249;SDS011;1637;42.020;23.992;2022-10-17T05:52:38;97.87;;;46.90;;
3249;SDS011;1637;42.020;23.992;2022-10-17T05:55:07;136.83;;;64.40;;
3249;SDS011;1637;42.020;23.992;2022-10-17T05:57:34;71.87;;;37.80;;
3249;SDS011;1637;42.020;23.992;2022-10-17T06:00:01;66.10;;;29.83;;
3249;SDS011;1637;42.020;23.992;2022-10-17T06:02:28;59.37;;;27.00;;
3249;SDS011;1637;42.020;23.992;2022-10-17T06:04:54;61.93;;;33.03;;
3249;SDS011;1637;42.020;23.992;2022-10-17T06:07:21;89.33;;;42.73;;
3249;SDS011;1637;42.020;23.992;2022-10-17T06:09:48;48.23;;;23.40;;
3249;SDS011;1637;42.020;23.992;2022-10-17T06:12:16;73.47;;;33.00;;
3249;SDS011;1637;42.020;23.992;2022-10-17T06:14:43;57.87;;;32.00;;
3249;SDS011;1637;42.020;23.992;2022-10-17T06:17:10;102.23;;;50.80;;
3249;SDS011;1637;42.020;23.992;2022-10-17T06:19:37;75.53;;;38.73;;
3249;SDS011;1637;42.020;23.992;2022-10-17T06:22:05;62.60;;;31.73;;
3249;SDS011;1637;42.020;23.992;2022-10-17T06:24:32;35.03;;;18.67;;
3249;SDS011;1637;42.020;23.992;2022-10-17T06:26:59;69.47;;;31.70;;
3249;SDS011;1637;42.020;23.992;2022-10-17T06:29:27;33.30;;;19.43;;
3249;SDS011;1637;42.020;23.992;2022-10-17T06:31:54;39.23;;;20.50;;
3249;SDS011;1637;42.020;23.992;2022-10-17T06:34:21;40.97;;;24.97;;
3249;SDS011;1637;42.020;23.992;2022-10-17T06:36:48;45.43;;;26.20;;
3249;SDS011;1637;42.020;23.992;2022-10-17T06:39:14;55.83;;;26.40;;
3249;SDS011;1637;42.020;23.992;2022-10-17T06:41:41;38.37;;;22.00;;
3249;SDS011;1637;42.020;23.992;2022-10-17T06:44:08;34.90;;;17.00;;
3249;SDS011;1637;42.020;23.992;2022-10-17T06:46:37;32.33;;;20.50;;
3249;SDS011;1637;42.020;23.992;2022-10-17T06:49:05;30.27;;;18.93;;
3249;SDS011;1637;42.020;23.992;2022-10-17T06:51:33;33.43;;;19.50;;
3249;SDS011;1637;42.020;23.992;2022-10-17T06:54:01;34.70;;;18.53;;
3249;SDS011;1637;42.020;23.992;2022-10-17T06:56:29;28.87;;;16.80;;
3249;SDS011;1637;42.020;23.992;2022-10-17T06:58:55;27.60;;;16.00;;
3249;SDS011;1637;42.020;23.992;2022-10-17T07:01:22;35.70;;;15.47;;
3249;SDS011;1637;42.020;23.992;2022-10-17T07:03:50;21.47;;;14.33;;
3249;SDS011;1637;42.020;23.992;2022-10-17T07:06:17;35.57;;;17.00;;
3249;SDS011;1637;42.020;23.992;2022-10-17T07:08:44;23.67;;;12.40;;
3249;SDS011;1637;42.020;23.992;2022-10-17T07:11:12;27.60;;;15.43;;
3249;SDS011;1637;42.020;23.992;2022-10-17T07:13:41;98.73;;;37.00;;
3249;SDS011;1637;42.020;23.992;2022-10-17T07:16:08;21.30;;;13.93;;
3249;SDS011;1637;42.020;23.992;2022-10-17T07:18:36;75.30;;;30.60;;
3249;SDS011;1637;42.020;23.992;2022-10-17T07:21:05;34.83;;;16.93;;
3249;SDS011;1637;42.020;23.992;2022-10-17T07:23:32;20.90;;;15.23;;
3249;SDS011;1637;42.020;23.992;2022-10-17T07:26:01;35.23;;;19.90;;
3249;SDS011;1637;42.020;23.992;2022-10-17T07:28:31;34.07;;;20.90;;
3249;SDS011;1637;42.020;23.992;2022-10-17T07:31:01;21.87;;;11.50;;
3249;SDS011;1637;42.020;23.992;2022-10-17T07:33:29;32.73;;;15.50;;
3249;SDS011;1637;42.020;23.992;2022-10-17T07:35:56;24.53;;;14.90;;
3249;SDS011;1637;42.020;23.992;2022-10-17T07:38:25;21.53;;;13.47;;
3249;SDS011;1637;42.020;23.992;2022-10-17T07:40:53;26.50;;;17.57;;
3249;SDS011;1637;42.020;23.992;2022-10-17T07:43:20;19.23;;;13.93;;
3249;SDS011;1637;42.020;23.992;2022-10-17T07:45:47;24.33;;;14.50;;
3249;SDS011;1637;42.020;23.992;2022-10-17T07:48:13;18.07;;;9.97;;
3249;SDS011;1637;42.020;23.992;2022-10-17T07:50:40;18.90;;;8.93;;
3249;SDS011;1637;42.020;23.992;2022-10-17T07:53:07;19.00;;;11.00;;
3249;SDS011;1637;42.020;23.992;2022-10-17T07:55:36;19.60;;;10.80;;
3249;SDS011;1637;42.020;23.992;2022-10-17T07:58:03;29.00;;;16.97;;
3249;SDS011;1637;42.020;23.992;2022-10-17T08:00:30;22.47;;;14.70;;
3249;SDS011;1637;42.020;23.992;2022-10-17T08:02:57;26.73;;;16.47;;
3249;SDS011;1637;42.020;23.992;2022-10-17T08:05:24;24.17;;;14.77;;
3249;SDS011;1637;42.020;23.992;2022-10-17T08:07:51;22.70;;;15.87;;
3249;SDS011;1637;42.020;23.992;2022-10-17T08:10:18;18.80;;;10.70;;
3249;SDS011;1637;42.020;23.992;2022-10-17T08:12:46;16.77;;;11.70;;
3249;SDS011;1637;42.020;23.992;2022-10-17T08:15:13;31.47;;;19.93;;
3249;SDS011;1637;42.020;23.992;2022-10-17T08:17:40;22.20;;;14.90;;
3249;SDS011;1637;42.020;23.992;2022-10-17T08:20:08;26.87;;;17.03;;
3249;SDS011;1637;42.020;23.992;2022-10-17T08:22:36;18.93;;;11.80;;
3249;SDS011;1637;42.020;23.992;2022-10-17T08:25:03;29.10;;;10.33;;
3249;SDS011;1637;42.020;23.992;2022-10-17T08:27:31;12.60;;;9.60;;
3249;SDS011;1637;42.020;23.992;2022-10-17T08:29:59;12.73;;;7.47;;
3249;SDS011;1637;42.020;23.992;2022-10-17T08:32:27;29.13;;;10.90;;
3249;SDS011;1637;42.020;23.992;2022-10-17T08:34:54;19.23;;;9.53;;
3249;SDS011;1637;42.020;23.992;2022-10-17T08:37:21;19.10;;;11.90;;
3249;SDS011;1637;42.020;23.992;2022-10-17T08:39:48;13.00;;;9.60;;
3249;SDS011;1637;42.020;23.992;2022-10-17T08:42:24;16.53;;;9.73;;
3249;SDS011;1637;42.020;23.992;2022-10-17T08:45:05;16.70;;;10.20;;
3249;SDS011;1637;42.020;23.992;2022-10-17T08:47:41;35.10;;;16.20;;
3249;SDS011;1637;42.020;23.992;2022-10-17T08:50:11;33.20;;;19.53;;
3249;SDS011;1637;42.020;23.992;2022-10-17T08:52:43;26.60;;;14.43;;
3249;SDS011;1637;42.020;23.992;2022-10-17T08:55:15;29.07;;;16.90;;
3249;SDS011;1637;42.020;23.992;2022-10-17T08:57:43;33.50;;;16.43;;
3249;SDS011;1637;42.020;23.992;2022-10-17T09:00:14;30.43;;;13.83;;
3249;SDS011;1637;42.020;23.992;2022-10-17T09:02:49;35.67;;;19.53;;
3249;SDS011;1637;42.020;23.992;2022-10-17T09:05:33;35.63;;;17.03;;
3249;SDS011;1637;42.020;23.992;2022-10-17T09:08:08;35.60;;;17.93;;
3249;SDS011;1637;42.020;23.992;2022-10-17T09:10:50;35.73;;;16.33;;
3249;SDS011;1637;42.020;23.992;2022-10-17T09:13:24;33.00;;;13.13;;
3249;SDS011;1637;42.020;23.992;2022-10-17T09:16:08;23.43;;;12.67;;
3249;SDS011;1637;42.020;23.992;2022-10-17T09:18:45;10.03;;;5.90;;
3249;SDS011;1637;42.020;23.992;2022-10-17T09:21:22;8.80;;;5.43;;
3249;SDS011;1637;42.020;23.992;2022-10-17T09:23:54;9.07;;;5.70;;
3249;SDS011;1637;42.020;23.992;2022-10-17T09:26:22;22.37;;;6.60;;
3249;SDS011;1637;42.020;23.992;2022-10-17T09:28:51;11.50;;;5.53;;
3249;SDS011;1637;42.020;23.992;2022-10-17T09:31:25;20.73;;;5.80;;
3249;SDS011;1637;42.020;23.992;2022-10-17T09:33:56;7.63;;;5.33;;
3249;SDS011;1637;42.020;23.992;2022-10-17T09:36:26;11.43;;;6.47;;
3249;SDS011;1637;42.020;23.992;2022-10-17T09:38:55;6.47;;;3.60;;
3249;SDS011;1637;42.020;23.992;2022-10-17T09:41:25;9.33;;;5.13;;
3249;SDS011;1637;42.020;23.992;2022-10-17T09:43:55;14.03;;;5.93;;
3249;SDS011;1637;42.020;23.992;2022-10-17T09:46:26;7.30;;;4.07;;
3249;SDS011;1637;42.020;23.992;2022-10-17T09:49:00;6.20;;;3.60;;
3249;SDS011;1637;42.020;23.992;2022-10-17T09:51:31;25.03;;;7.10;;
3249;SDS011;1637;42.020;23.992;2022-10-17T09:53:59;16.93;;;8.73;;
3249;SDS011;1637;42.020;23.992;2022-10-17T09:56:29;7.93;;;7.00;;
3249;SDS011;1637;42.020;23.992;2022-10-17T09:58:56;5.67;;;3.90;;
3249;SDS011;1637;42.020;23.992;2022-10-17T10:01:24;7.00;;;3.20;;
3249;SDS011;1637;42.020;23.992;2022-10-17T10:04:09;3.47;;;3.13;;
3249;SDS011;1637;42.020;23.992;2022-10-17T10:06:37;5.23;;;3.50;;
3249;SDS011;1637;42.020;23.992;2022-10-17T10:09:05;3.43;;;3.00;;
3249;SDS011;1637;42.020;23.992;2022-10-17T10:11:45;4.73;;;2.70;;
3249;SDS011;1637;42.020;23.992;2022-10-17T10:14:18;4.10;;;3.23;;
3249;SDS011;1637;42.020;23.992;2022-10-17T10:16:48;7.80;;;4.00;;
3249;SDS011;1637;42.020;23.992;2022-10-17T10:19:25;2.47;;;2.00;;
3249;SDS011;1637;42.020;23.992;2022-10-17T10:21:55;4.30;;;2.80;;
3249;SDS011;1637;42.020;23.992;2022-10-17T10:24:23;7.67;;;5.93;;
3249;SDS011;1637;42.020;23.992;2022-10-17T10:26:51;9.70;;;3.27;;
3249;SDS011;1637;42.020;23.992;2022-10-17T10:29:24;9.13;;;5.13;;
3249;SDS011;1637;42.020;23.992;2022-10-17T10:31:56;53.23;;;8.80;;
3249;SDS011;1637;42.020;23.992;2022-10-17T10:34:33;4.07;;;2.20;;
3249;SDS011;1637;42.020;23.992;2022-10-17T10:37:01;2.83;;;2.47;;
3249;SDS011;1637;42.020;23.992;2022-10-17T10:39:35;4.13;;;2.10;;
3249;SDS011;1637;42.020;23.992;2022-10-17T10:42:07;3.47;;;2.00;;
3249;SDS011;1637;42.020;23.992;2022-10-17T10:44:45;12.17;;;4.97;;
3249;SDS011;1637;42.020;23.992;2022-10-17T10:47:16;11.90;;;3.60;;
3249;SDS011;1637;42.020;23.992;2022-10-17T10:49:46;9.03;;;5.30;;
3249;SDS011;1637;42.020;23.992;2022-10-17T10:52:18;16.80;;;3.93;;
3249;SDS011;1637;42.020;23.992;2022-10-17T10:54:53;5.10;;;2.57;;
3249;SDS011;1637;42.020;23.992;2022-10-17T10:57:25;3.50;;;2.80;;
3249;SDS011;1637;42.020;23.992;2022-10-17T10:59:58;9.03;;;2.87;;
3249;SDS011;1637;42.020;23.992;2022-10-17T11:02:40;4.30;;;2.70;;
3249;SDS011;1637;42.020;23.992;2022-10-17T11:05:14;4.77;;;2.00;;
3249;SDS011;1637;42.020;23.992;2022-10-17T11:07:48;3.73;;;2.53;;
3249;SDS011;1637;42.020;23.992;2022-10-17T11:10:21;8.60;;;5.90;;
3249;SDS011;1637;42.020;23.992;2022-10-17T11:12:52;7.27;;;4.80;;
3249;SDS011;1637;42.020;23.992;2022-10-17T11:15:26;3.13;;;2.10;;
3249;SDS011;1637;42.020;23.992;2022-10-17T11:18:01;17.20;;;8.03;;
3249;SDS011;1637;42.020;23.992;2022-10-17T11:20:33;6.63;;;4.70;;
3249;SDS011;1637;42.020;23.992;2022-10-17T11:23:11;3.70;;;2.40;;
3249;SDS011;1637;42.020;23.992;2022-10-17T11:25:45;27.13;;;15.80;;
3249;SDS011;1637;42.020;23.992;2022-10-17T11:28:14;12.53;;;8.20;;
3249;SDS011;1637;42.020;23.992;2022-10-17T11:30:48;11.53;;;4.50;;
3249;SDS011;1637;42.020;23.992;2022-10-17T11:33:21;1.87;;;1.67;;
3249;SDS011;1637;42.020;23.992;2022-10-17T11:35:53;4.10;;;3.70;;
3249;SDS011;1637;42.020;23.992;2022-10-17T11:38:28;2.20;;;1.87;;
3249;SDS011;1637;42.020;23.992;2022-10-17T11:41:02;6.47;;;5.80;;
3249;SDS011;1637;42.020;23.992;2022-10-17T11:43:33;2.50;;;1.40;;
3249;SDS011;1637;42.020;23.992;2022-10-17T11:46:05;1.67;;;1.27;;
3249;SDS011;1637;42.020;23.992;2022-10-17T11:48:41;2.90;;;2.20;;
3249;SDS011;1637;42.020;23.992;2022-10-17T11:51:14;6.57;;;1.50;;
3249;SDS011;1637;42.020;23.992;2022-10-17T11:53:44;3.10;;;2.23;;
3249;SDS011;1637;42.020;23.992;2022-10-17T11:56:14;3.53;;;2.60;;
3249;SDS011;1637;42.020;23.992;2022-10-17T11:58:49;4.23;;;1.47;;
3249;SDS011;1637;42.020;23.992;2022-10-17T12:01:21;9.33;;;2.30;;
3249;SDS011;1637;42.020;23.992;2022-10-17T12:06:46;9.93;;;9.10;;
3249;SDS011;1637;42.020;23.992;2022-10-17T12:09:24;5.10;;;4.40;;
3249;SDS011;1637;42.020;23.992;2022-10-17T12:11:58;3.30;;;3.10;;
3249;SDS011;1637;42.020;23.992;2022-10-17T12:14:34;3.00;;;1.40;;
3249;SDS011;1637;42.020;23.992;2022-10-17T12:17:19;7.10;;;4.60;;
3249;SDS011;1637;42.020;23.992;2022-10-17T12:19:52;8.43;;;2.20;;
3249;SDS011;1637;42.020;23.992;2022-10-17T12:22:23;5.17;;;3.00;;
3249;SDS011;1637;42.020;23.992;2022-10-17T12:24:55;4.93;;;2.70;;
3249;SDS011;1637;42.020;23.992;2022-10-17T12:27:37;1.53;;;1.40;;
3249;SDS011;1637;42.020;23.992;2022-10-17T12:30:15;37.10;;;23.60;;
3249;SDS011;1637;42.020;23.992;2022-10-17T12:33:02;2.00;;;1.57;;
3249;SDS011;1637;42.020;23.992;2022-10-17T12:35:33;5.23;;;1.53;;
3249;SDS011;1637;42.020;23.992;2022-10-17T12:40:51;1.90;;;1.70;;
3249;SDS011;1637;42.020;23.992;2022-10-17T12:55:09;16.60;;;7.70;;
3249;SDS011;1637;42.020;23.992;2022-10-17T12:57:40;7.70;;;5.27;;
3249;SDS011;1637;42.020;23.992;2022-10-17T13:00:20;7.57;;;4.77;;
3249;SDS011;1637;42.020;23.992;2022-10-17T13:02:51;6.00;;;1.50;;
3249;SDS011;1637;42.020;23.992;2022-10-17T13:05:23;5.00;;;2.50;;
3249;SDS011;1637;42.020;23.992;2022-10-17T13:07:53;3.33;;;1.50;;
3249;SDS011;1637;42.020;23.992;2022-10-17T13:10:24;9.17;;;5.87;;
3249;SDS011;1637;42.020;23.992;2022-10-17T13:13:05;9.87;;;4.40;;
3249;SDS011;1637;42.020;23.992;2022-10-17T13:15:38;19.60;;;11.00;;
3249;SDS011;1637;42.020;23.992;2022-10-17T13:18:05;3.50;;;3.00;;
3249;SDS011;1637;42.020;23.992;2022-10-17T13:20:42;19.57;;;9.53;;
3249;SDS011;1637;42.020;23.992;2022-10-17T13:23:20;9.50;;;5.83;;
3249;SDS011;1637;42.020;23.992;2022-10-17T13:26:00;2.20;;;1.63;;
3249;SDS011;1637;42.020;23.992;2022-10-17T13:28:28;2.10;;;1.50;;
3249;SDS011;1637;42.020;23.992;2022-10-17T13:30:54;2.63;;;1.17;;
3249;SDS011;1637;42.020;23.992;2022-10-17T13:33:27;1.00;;;0.87;;
3249;SDS011;1637;42.020;23.992;2022-10-17T13:35:57;4.60;;;1.90;;
3249;SDS011;1637;42.020;23.992;2022-10-17T13:38:26;19.47;;;11.87;;
3249;SDS011;1637;42.020;23.992;2022-10-17T13:40:56;2.00;;;1.17;;
3249;SDS011;1637;42.020;23.992;2022-10-17T13:43:25;1.70;;;1.50;;
3249;SDS011;1637;42.020;23.992;2022-10-17T13:45:52;5.60;;;0.90;;
3249;SDS011;1637;42.020;23.992;2022-10-17T13:48:21;11.00;;;5.90;;
3249;SDS011;1637;42.020;23.992;2022-10-17T13:50:50;2.33;;;1.90;;
3249;SDS011;1637;42.020;23.992;2022-10-17T13:53:21;3.00;;;2.73;;
3249;SDS011;1637;42.020;23.992;2022-10-17T13:55:51;5.47;;;2.33;;
3249;SDS011;1637;42.020;23.992;2022-10-17T13:58:20;2.50;;;1.47;;
3249;SDS011;1637;42.020;23.992;2022-10-17T14:00:49;2.40;;;1.17;;
3249;SDS011;1637;42.020;23.992;2022-10-17T14:03:17;2.50;;;2.17;;
3249;SDS011;1637;42.020;23.992;2022-10-17T14:06:02;4.00;;;1.20;;
3249;SDS011;1637;42.020;23.992;2022-10-17T14:08:49;2.60;;;1.40;;
3249;SDS011;1637;42.020;23.992;2022-10-17T14:11:23;1.63;;;0.90;;
3249;SDS011;1637;42.020;23.992;2022-10-17T14:13:54;2.43;;;0.83;;
3249;SDS011;1637;42.020;23.992;2022-10-17T14:16:24;2.07;;;1.57;;
3249;SDS011;1637;42.020;23.992;2022-10-17T14:18:53;5.10;;;1.40;;
3249;SDS011;1637;42.020;23.992;2022-10-17T14:21:21;2.10;;;1.40;;
3249;SDS011;1637;42.020;23.992;2022-10-17T14:23:49;1.97;;;1.40;;
3249;SDS011;1637;42.020;23.992;2022-10-17T14:26:18;1.30;;;0.90;;
3249;SDS011;1637;42.020;23.992;2022-10-17T14:28:48;2.17;;;1.20;;
3249;SDS011;1637;42.020;23.992;2022-10-17T14:31:29;3.10;;;1.07;;
3249;SDS011;1637;42.020;23.992;2022-10-17T14:33:59;2.83;;;1.30;;
3249;SDS011;1637;42.020;23.992;2022-10-17T14:36:34;2.87;;;1.70;;
3249;SDS011;1637;42.020;23.992;2022-10-17T14:39:04;2.47;;;1.23;;
3249;SDS011;1637;42.020;23.992;2022-10-17T14:41:33;1.10;;;0.90;;
3249;SDS011;1637;42.020;23.992;2022-10-17T14:44:02;3.17;;;1.30;;
3249;SDS011;1637;42.020;23.992;2022-10-17T14:46:34;2.30;;;1.10;;
3249;SDS011;1637;42.020;23.992;2022-10-17T14:49:03;1.20;;;0.90;;
3249;SDS011;1637;42.020;23.992;2022-10-17T14:51:33;1.93;;;1.00;;
3249;SDS011;1637;42.020;23.992;2022-10-17T14:54:02;5.90;;;1.10;;
3249;SDS011;1637;42.020;23.992;2022-10-17T14:56:38;1.10;;;0.87;;
3249;SDS011;1637;42.020;23.992;2022-10-17T14:59:06;3.17;;;2.87;;
3249;SDS011;1637;42.020;23.992;2022-10-17T15:01:36;7.40;;;1.40;;
3249;SDS011;1637;42.020;23.992;2022-10-17T15:04:03;6.60;;;1.20;;
3249;SDS011;1637;42.020;23.992;2022-10-17T15:06:31;3.67;;;1.33;;
3249;SDS011;1637;42.020;23.992;2022-10-17T15:08:59;1.57;;;1.23;;
3249;SDS011;1637;42.020;23.992;2022-10-17T15:11:26;1.50;;;1.00;;
3249;SDS011;1637;42.020;23.992;2022-10-17T15:13:53;2.47;;;1.20;;
3249;SDS011;1637;42.020;23.992;2022-10-17T15:16:20;3.73;;;1.30;;
3249;SDS011;1637;42.020;23.992;2022-10-17T15:18:50;1.80;;;1.10;;